ESGR/KVB METAR and TAF weather

Enter ICAO airport designator
Station Type Date Time Source
ESGR METAR 2019/06/24 23:20 UTC NOAA

ESGR 242320Z AUTO 15007KT 9999 NCD 16/09 Q1027


Station Type Date Time Source
ESGR Decoded METAR 2019/06/24 23:20 UTC NOAA

Skovde Flygplats, Sweden (ESGR) 58-27N 013-58E 105M
Jun 24, 2019 - 07:20 PM EDT / 2019.06.24 2320 UTC
Wind: from the SSE (150 degrees) at 8 MPH (7 KT):0
Visibility: greater than 7 mile(s):0
Temperature: 60 F (16 C)
Dew Point: 48 F (9 C)
Relative Humidity: 63%
Pressure (altimeter): 30.33 in. Hg (1027 hPa)
ob: ESGR 242320Z AUTO 15007KT 9999 NCD 16/09 Q1027
cycle: 23

Station Type Date Time Source
ESGR TAF 2009/06/28 04:50 UTC NOAA

METAR ESGR 280450Z AUTO VRB02KT 9999NDV NCD 17/12 Q1020

Example: see airport list